Sandy Ridge, Pennsylvania
Current Conditions -  °F | °C
As of 9:54 AM on Wednesday 22 Oct 2014 (Local Time) from KFIG Reporting Station
Overcast Overcast  
Wind Chill: 41°   Ceiling: 1100
Heat Index: 47°   Visibility: 10mi
Dew Point: 42°   Wind: 13mph
Humidity: 83%   Direction: 10°N
Pressure: 30.1"   Gusts: NA
Location:  40.81°N, 78.24°W
Report Text: KFIG 221354Z AUTO 01011KT 10SM OVC011 08/06 A3010 RMK AO2 SLP197 T00830056
Loading
Personal Weather Stations






























Interactive Weather Map
Tropical Storm Tracking
New forecast layout! Learn more

10-Day Weather Forecast

Advertisements
Track Severe Weather on mobile